sensor_id;sensor_type;location;lat;lon;timestamp;temperature;humidity
38788;DHT22;24536;45.488;12.238;2023-06-19T00:01:29;25.90;85.50
38788;DHT22;24536;45.488;12.238;2023-06-19T00:03:55;25.80;85.30
38788;DHT22;24536;45.488;12.238;2023-06-19T00:06:21;25.80;85.40
38788;DHT22;24536;45.488;12.238;2023-06-19T00:08:46;25.80;85.60
38788;DHT22;24536;45.488;12.238;2023-06-19T00:11:12;25.80;85.60
38788;DHT22;24536;45.488;12.238;2023-06-19T00:13:38;25.80;85.70
38788;DHT22;24536;45.488;12.238;2023-06-19T00:16:03;25.80;85.80
38788;DHT22;24536;45.488;12.238;2023-06-19T00:18:30;25.80;85.90
38788;DHT22;24536;45.488;12.238;2023-06-19T00:20:55;25.80;86.00
38788;DHT22;24536;45.488;12.238;2023-06-19T00:23:25;25.70;86.00
38788;DHT22;24536;45.488;12.238;2023-06-19T00:25:50;25.70;86.10
38788;DHT22;24536;45.488;12.238;2023-06-19T00:28:16;25.70;86.10
38788;DHT22;24536;45.488;12.238;2023-06-19T00:30:45;25.70;87.00
38788;DHT22;24536;45.488;12.238;2023-06-19T00:33:10;25.70;86.60
38788;DHT22;24536;45.488;12.238;2023-06-19T00:35:36;25.70;86.80
38788;DHT22;24536;45.488;12.238;2023-06-19T00:38:02;25.60;86.90
38788;DHT22;24536;45.488;12.238;2023-06-19T00:40:30;25.60;87.20
38788;DHT22;24536;45.488;12.238;2023-06-19T00:42:56;25.60;87.20
38788;DHT22;24536;45.488;12.238;2023-06-19T00:45:23;25.60;87.20
38788;DHT22;24536;45.488;12.238;2023-06-19T00:47:50;25.60;87.20
38788;DHT22;24536;45.488;12.238;2023-06-19T00:50:16;25.60;87.80
38788;DHT22;24536;45.488;12.238;2023-06-19T00:52:43;25.70;87.40
38788;DHT22;24536;45.488;12.238;2023-06-19T00:55:09;25.60;87.40
38788;DHT22;24536;45.488;12.238;2023-06-19T00:57:35;25.60;87.50
38788;DHT22;24536;45.488;12.238;2023-06-19T01:00:02;25.60;87.60
38788;DHT22;24536;45.488;12.238;2023-06-19T01:02:30;25.60;87.70
38788;DHT22;24536;45.488;12.238;2023-06-19T01:04:56;25.60;87.60
38788;DHT22;24536;45.488;12.238;2023-06-19T01:08:03;25.50;87.50
38788;DHT22;24536;45.488;12.238;2023-06-19T01:10:33;25.50;87.50
38788;DHT22;24536;45.488;12.238;2023-06-19T01:15:30;25.40;87.60
38788;DHT22;24536;45.488;12.238;2023-06-19T01:17:57;25.40;87.60
38788;DHT22;24536;45.488;12.238;2023-06-19T01:20:24;25.30;87.70
38788;DHT22;24536;45.488;12.238;2023-06-19T01:22:51;25.40;87.90
38788;DHT22;24536;45.488;12.238;2023-06-19T01:25:16;25.30;87.90
38788;DHT22;24536;45.488;12.238;2023-06-19T01:27:42;25.30;87.80
38788;DHT22;24536;45.488;12.238;2023-06-19T01:30:10;25.30;87.80
38788;DHT22;24536;45.488;12.238;2023-06-19T01:32:41;25.30;87.90
38788;DHT22;24536;45.488;12.238;2023-06-19T01:35:09;25.30;88.10
38788;DHT22;24536;45.488;12.238;2023-06-19T01:37:38;25.20;88.10
38788;DHT22;24536;45.488;12.238;2023-06-19T01:40:06;25.20;88.20
38788;DHT22;24536;45.488;12.238;2023-06-19T01:42:37;25.10;88.30
38788;DHT22;24536;45.488;12.238;2023-06-19T01:45:04;25.10;88.50
38788;DHT22;24536;45.488;12.238;2023-06-19T01:47:30;25.10;88.60
38788;DHT22;24536;45.488;12.238;2023-06-19T01:49:55;25.10;88.60
38788;DHT22;24536;45.488;12.238;2023-06-19T01:52:21;25.10;88.60
38788;DHT22;24536;45.488;12.238;2023-06-19T01:54:47;25.10;88.70
38788;DHT22;24536;45.488;12.238;2023-06-19T01:57:12;25.10;88.70
38788;DHT22;24536;45.488;12.238;2023-06-19T01:59:38;25.10;88.80
38788;DHT22;24536;45.488;12.238;2023-06-19T02:02:04;25.10;88.70
38788;DHT22;24536;45.488;12.238;2023-06-19T02:04:32;25.10;88.70
38788;DHT22;24536;45.488;12.238;2023-06-19T02:06:58;25.20;88.80
38788;DHT22;24536;45.488;12.238;2023-06-19T02:09:23;25.10;88.70
38788;DHT22;24536;45.488;12.238;2023-06-19T02:11:49;25.20;88.80
38788;DHT22;24536;45.488;12.238;2023-06-19T02:14:15;25.20;88.70
38788;DHT22;24536;45.488;12.238;2023-06-19T02:16:41;25.10;88.50
38788;DHT22;24536;45.488;12.238;2023-06-19T02:19:12;25.10;88.50
38788;DHT22;24536;45.488;12.238;2023-06-19T02:21:38;25.10;88.30
38788;DHT22;24536;45.488;12.238;2023-06-19T02:24:03;24.90;88.20
38788;DHT22;24536;45.488;12.238;2023-06-19T02:26:29;24.80;88.10
38788;DHT22;24536;45.488;12.238;2023-06-19T02:28:56;24.80;88.30
38788;DHT22;24536;45.488;12.238;2023-06-19T02:31:22;24.80;88.40
38788;DHT22;24536;45.488;12.238;2023-06-19T02:33:48;24.80;88.40
38788;DHT22;24536;45.488;12.238;2023-06-19T02:36:14;24.70;88.40
38788;DHT22;24536;45.488;12.238;2023-06-19T02:38:45;24.70;88.50
38788;DHT22;24536;45.488;12.238;2023-06-19T02:41:12;24.60;88.40
38788;DHT22;24536;45.488;12.238;2023-06-19T02:43:39;24.60;88.50
38788;DHT22;24536;45.488;12.238;2023-06-19T02:46:05;24.60;88.40
38788;DHT22;24536;45.488;12.238;2023-06-19T02:48:31;24.50;88.50
38788;DHT22;24536;45.488;12.238;2023-06-19T02:50:56;24.50;88.50
38788;DHT22;24536;45.488;12.238;2023-06-19T02:53:22;24.50;88.40
38788;DHT22;24536;45.488;12.238;2023-06-19T02:55:48;24.40;88.60
38788;DHT22;24536;45.488;12.238;2023-06-19T02:58:14;24.40;88.50
38788;DHT22;24536;45.488;12.238;2023-06-19T03:00:39;24.30;88.50
38788;DHT22;24536;45.488;12.238;2023-06-19T03:03:05;24.30;88.60
38788;DHT22;24536;45.488;12.238;2023-06-19T03:05:31;24.20;88.70
38788;DHT22;24536;45.488;12.238;2023-06-19T03:07:57;24.20;88.80
38788;DHT22;24536;45.488;12.238;2023-06-19T03:10:22;24.20;88.70
38788;DHT22;24536;45.488;12.238;2023-06-19T03:12:48;24.10;88.50
38788;DHT22;24536;45.488;12.238;2023-06-19T03:15:14;24.10;88.50
38788;DHT22;24536;45.488;12.238;2023-06-19T03:17:39;24.10;88.50
38788;DHT22;24536;45.488;12.238;2023-06-19T03:20:05;24.10;88.60
38788;DHT22;24536;45.488;12.238;2023-06-19T03:22:31;24.00;88.40
38788;DHT22;24536;45.488;12.238;2023-06-19T03:24:57;24.00;88.50
38788;DHT22;24536;45.488;12.238;2023-06-19T03:27:23;24.00;88.50
38788;DHT22;24536;45.488;12.238;2023-06-19T03:29:50;24.00;88.50
38788;DHT22;24536;45.488;12.238;2023-06-19T03:32:16;23.90;88.50
38788;DHT22;24536;45.488;12.238;2023-06-19T03:34:42;23.90;88.60
38788;DHT22;24536;45.488;12.238;2023-06-19T03:37:07;23.90;88.50
38788;DHT22;24536;45.488;12.238;2023-06-19T03:39:33;23.90;88.50
38788;DHT22;24536;45.488;12.238;2023-06-19T03:41:59;23.90;88.50
38788;DHT22;24536;45.488;12.238;2023-06-19T03:44:25;24.00;88.30
38788;DHT22;24536;45.488;12.238;2023-06-19T03:46:50;24.00;88.20
38788;DHT22;24536;45.488;12.238;2023-06-19T03:49:16;24.10;88.10
38788;DHT22;24536;45.488;12.238;2023-06-19T03:51:43;24.10;87.80
38788;DHT22;24536;45.488;12.238;2023-06-19T03:54:08;24.10;87.30
38788;DHT22;24536;45.488;12.238;2023-06-19T03:56:34;24.20;87.00
38788;DHT22;24536;45.488;12.238;2023-06-19T03:59:00;24.20;86.70
38788;DHT22;24536;45.488;12.238;2023-06-19T04:01:25;24.20;86.50
38788;DHT22;24536;45.488;12.238;2023-06-19T04:03:52;24.20;86.30
38788;DHT22;24536;45.488;12.238;2023-06-19T04:06:17;24.20;86.20
38788;DHT22;24536;45.488;12.238;2023-06-19T04:08:43;24.10;86.10
38788;DHT22;24536;45.488;12.238;2023-06-19T04:11:09;24.10;86.00
38788;DHT22;24536;45.488;12.238;2023-06-19T04:13:34;24.10;86.00
38788;DHT22;24536;45.488;12.238;2023-06-19T04:16:00;24.00;86.00
38788;DHT22;24536;45.488;12.238;2023-06-19T04:18:26;24.00;86.00
38788;DHT22;24536;45.488;12.238;2023-06-19T04:20:53;24.00;86.00
38788;DHT22;24536;45.488;12.238;2023-06-19T04:23:18;24.00;86.00
38788;DHT22;24536;45.488;12.238;2023-06-19T04:25:44;24.00;85.90
38788;DHT22;24536;45.488;12.238;2023-06-19T04:28:10;24.00;85.90
38788;DHT22;24536;45.488;12.238;2023-06-19T04:30:36;24.00;85.80
38788;DHT22;24536;45.488;12.238;2023-06-19T04:33:05;24.00;85.70
38788;DHT22;24536;45.488;12.238;2023-06-19T04:35:32;24.10;85.70
38788;DHT22;24536;45.488;12.238;2023-06-19T04:37:57;24.10;85.70
38788;DHT22;24536;45.488;12.238;2023-06-19T04:40:26;24.10;85.80
38788;DHT22;24536;45.488;12.238;2023-06-19T04:42:52;24.20;85.80
38788;DHT22;24536;45.488;12.238;2023-06-19T04:45:19;24.20;85.50
38788;DHT22;24536;45.488;12.238;2023-06-19T04:47:45;24.20;85.30
38788;DHT22;24536;45.488;12.238;2023-06-19T04:50:11;24.20;85.20
38788;DHT22;24536;45.488;12.238;2023-06-19T04:52:36;24.30;84.90
38788;DHT22;24536;45.488;12.238;2023-06-19T04:55:05;24.30;84.80
38788;DHT22;24536;45.488;12.238;2023-06-19T04:57:32;24.20;84.80
38788;DHT22;24536;45.488;12.238;2023-06-19T04:59:58;24.20;84.80
38788;DHT22;24536;45.488;12.238;2023-06-19T05:02:23;24.10;84.80
38788;DHT22;24536;45.488;12.238;2023-06-19T05:04:49;24.10;84.80
38788;DHT22;24536;45.488;12.238;2023-06-19T05:07:15;24.10;84.90
38788;DHT22;24536;45.488;12.238;2023-06-19T05:09:43;24.10;84.80
38788;DHT22;24536;45.488;12.238;2023-06-19T05:12:10;24.10;85.00
38788;DHT22;24536;45.488;12.238;2023-06-19T05:14:36;24.20;85.00
38788;DHT22;24536;45.488;12.238;2023-06-19T05:17:02;24.20;84.80
38788;DHT22;24536;45.488;12.238;2023-06-19T05:19:27;24.20;84.60
38788;DHT22;24536;45.488;12.238;2023-06-19T05:21:53;24.20;84.50
38788;DHT22;24536;45.488;12.238;2023-06-19T05:24:19;24.30;84.60
38788;DHT22;24536;45.488;12.238;2023-06-19T05:26:44;24.40;84.90
38788;DHT22;24536;45.488;12.238;2023-06-19T05:29:10;24.40;84.80
38788;DHT22;24536;45.488;12.238;2023-06-19T05:31:36;24.50;84.60
38788;DHT22;24536;45.488;12.238;2023-06-19T05:34:02;24.60;84.50
38788;DHT22;24536;45.488;12.238;2023-06-19T05:36:28;24.60;84.40
38788;DHT22;24536;45.488;12.238;2023-06-19T05:38:53;24.60;84.40
38788;DHT22;24536;45.488;12.238;2023-06-19T05:41:19;24.60;84.10
38788;DHT22;24536;45.488;12.238;2023-06-19T05:43:44;24.60;83.90
38788;DHT22;24536;45.488;12.238;2023-06-19T05:46:10;24.50;83.80
38788;DHT22;24536;45.488;12.238;2023-06-19T05:48:37;24.50;84.00
38788;DHT22;24536;45.488;12.238;2023-06-19T05:51:02;24.50;84.30
38788;DHT22;24536;45.488;12.238;2023-06-19T05:53:28;24.50;84.50
38788;DHT22;24536;45.488;12.238;2023-06-19T05:55:54;24.60;84.60
38788;DHT22;24536;45.488;12.238;2023-06-19T05:58:20;24.60;84.30
38788;DHT22;24536;45.488;12.238;2023-06-19T06:00:46;24.70;84.10
38788;DHT22;24536;45.488;12.238;2023-06-19T06:03:12;24.70;84.10
38788;DHT22;24536;45.488;12.238;2023-06-19T06:05:39;24.70;84.00
38788;DHT22;24536;45.488;12.238;2023-06-19T06:08:04;24.70;83.80
38788;DHT22;24536;45.488;12.238;2023-06-19T06:10:30;24.70;83.80
38788;DHT22;24536;45.488;12.238;2023-06-19T06:12:56;24.70;83.80
38788;DHT22;24536;45.488;12.238;2023-06-19T06:15:21;24.70;83.70
38788;DHT22;24536;45.488;12.238;2023-06-19T06:17:47;24.80;83.80
38788;DHT22;24536;45.488;12.238;2023-06-19T06:20:13;24.80;83.70
38788;DHT22;24536;45.488;12.238;2023-06-19T06:22:42;24.90;83.40
38788;DHT22;24536;45.488;12.238;2023-06-19T06:25:08;25.00;83.40
38788;DHT22;24536;45.488;12.238;2023-06-19T06:27:35;25.10;83.30
38788;DHT22;24536;45.488;12.238;2023-06-19T06:30:01;25.20;83.00
38788;DHT22;24536;45.488;12.238;2023-06-19T06:32:27;25.30;82.70
38788;DHT22;24536;45.488;12.238;2023-06-19T06:34:54;25.40;82.50
38788;DHT22;24536;45.488;12.238;2023-06-19T06:37:20;25.40;82.00
38788;DHT22;24536;45.488;12.238;2023-06-19T06:39:48;25.40;81.90
38788;DHT22;24536;45.488;12.238;2023-06-19T06:42:15;25.40;81.80
38788;DHT22;24536;45.488;12.238;2023-06-19T06:44:41;25.50;81.60
38788;DHT22;24536;45.488;12.238;2023-06-19T06:47:06;25.50;81.60
38788;DHT22;24536;45.488;12.238;2023-06-19T06:49:32;25.50;82.10
38788;DHT22;24536;45.488;12.238;2023-06-19T06:51:58;25.60;81.50
38788;DHT22;24536;45.488;12.238;2023-06-19T06:54:24;25.60;81.50
38788;DHT22;24536;45.488;12.238;2023-06-19T06:56:49;25.70;81.60
38788;DHT22;24536;45.488;12.238;2023-06-19T06:59:15;25.70;81.40
38788;DHT22;24536;45.488;12.238;2023-06-19T07:01:41;25.70;81.40
38788;DHT22;24536;45.488;12.238;2023-06-19T07:04:07;25.80;81.10
38788;DHT22;24536;45.488;12.238;2023-06-19T07:06:33;25.80;81.10
38788;DHT22;24536;45.488;12.238;2023-06-19T07:08:58;25.80;81.30
38788;DHT22;24536;45.488;12.238;2023-06-19T07:11:24;25.80;80.70
38788;DHT22;24536;45.488;12.238;2023-06-19T07:13:50;25.80;80.30
38788;DHT22;24536;45.488;12.238;2023-06-19T07:16:15;25.80;80.40
38788;DHT22;24536;45.488;12.238;2023-06-19T07:18:41;25.80;80.80
38788;DHT22;24536;45.488;12.238;2023-06-19T07:21:11;25.90;80.90
38788;DHT22;24536;45.488;12.238;2023-06-19T07:23:43;26.00;80.70
38788;DHT22;24536;45.488;12.238;2023-06-19T07:26:10;26.00;80.20
38788;DHT22;24536;45.488;12.238;2023-06-19T07:28:35;26.10;80.10
38788;DHT22;24536;45.488;12.238;2023-06-19T07:31:04;26.10;79.90
38788;DHT22;24536;45.488;12.238;2023-06-19T07:33:30;26.20;79.60
38788;DHT22;24536;45.488;12.238;2023-06-19T07:35:56;26.20;79.20
38788;DHT22;24536;45.488;12.238;2023-06-19T07:38:22;26.30;79.10
38788;DHT22;24536;45.488;12.238;2023-06-19T07:40:48;26.30;78.40
38788;DHT22;24536;45.488;12.238;2023-06-19T07:43:13;26.30;78.20
38788;DHT22;24536;45.488;12.238;2023-06-19T07:45:39;26.40;78.10
38788;DHT22;24536;45.488;12.238;2023-06-19T07:48:05;26.40;78.20
38788;DHT22;24536;45.488;12.238;2023-06-19T07:50:30;26.40;78.10
38788;DHT22;24536;45.488;12.238;2023-06-19T07:52:57;26.50;77.90
38788;DHT22;24536;45.488;12.238;2023-06-19T07:55:23;26.50;76.70
38788;DHT22;24536;45.488;12.238;2023-06-19T07:57:49;26.60;77.10
38788;DHT22;24536;45.488;12.238;2023-06-19T08:00:15;26.60;77.10
38788;DHT22;24536;45.488;12.238;2023-06-19T08:02:41;26.70;77.50
38788;DHT22;24536;45.488;12.238;2023-06-19T08:05:08;26.80;77.90
38788;DHT22;24536;45.488;12.238;2023-06-19T08:07:35;26.80;77.70
38788;DHT22;24536;45.488;12.238;2023-06-19T08:10:01;26.90;77.40
38788;DHT22;24536;45.488;12.238;2023-06-19T08:12:29;26.90;77.00
38788;DHT22;24536;45.488;12.238;2023-06-19T08:14:55;26.90;77.50
38788;DHT22;24536;45.488;12.238;2023-06-19T08:17:20;26.90;77.50
38788;DHT22;24536;45.488;12.238;2023-06-19T08:19:46;27.00;78.40
38788;DHT22;24536;45.488;12.238;2023-06-19T08:22:12;27.10;78.70
38788;DHT22;24536;45.488;12.238;2023-06-19T08:24:38;27.20;77.90
38788;DHT22;24536;45.488;12.238;2023-06-19T08:27:05;27.20;77.50
38788;DHT22;24536;45.488;12.238;2023-06-19T08:29:31;27.20;77.40
38788;DHT22;24536;45.488;12.238;2023-06-19T08:31:57;27.30;77.50
38788;DHT22;24536;45.488;12.238;2023-06-19T08:34:22;27.30;77.20
38788;DHT22;24536;45.488;12.238;2023-06-19T08:36:48;27.40;76.90
38788;DHT22;24536;45.488;12.238;2023-06-19T08:39:14;27.40;76.40
38788;DHT22;24536;45.488;12.238;2023-06-19T08:41:39;27.50;76.40
38788;DHT22;24536;45.488;12.238;2023-06-19T08:44:07;27.60;76.20
38788;DHT22;24536;45.488;12.238;2023-06-19T08:46:33;27.60;76.20
38788;DHT22;24536;45.488;12.238;2023-06-19T08:49:00;27.70;76.50
38788;DHT22;24536;45.488;12.238;2023-06-19T08:51:29;27.80;77.00
38788;DHT22;24536;45.488;12.238;2023-06-19T08:54:03;27.90;77.20
38788;DHT22;24536;45.488;12.238;2023-06-19T08:56:30;28.00;77.60
38788;DHT22;24536;45.488;12.238;2023-06-19T08:59:11;28.10;78.20
38788;DHT22;24536;45.488;12.238;2023-06-19T09:01:38;28.20;77.80
38788;DHT22;24536;45.488;12.238;2023-06-19T09:04:11;28.30;77.90
38788;DHT22;24536;45.488;12.238;2023-06-19T09:06:51;28.30;78.10
38788;DHT22;24536;45.488;12.238;2023-06-19T09:09:19;28.40;77.80
38788;DHT22;24536;45.488;12.238;2023-06-19T09:14:37;28.50;78.20
38788;DHT22;24536;45.488;12.238;2023-06-19T09:17:05;28.60;77.50
38788;DHT22;24536;45.488;12.238;2023-06-19T09:19:32;28.60;78.00
38788;DHT22;24536;45.488;12.238;2023-06-19T09:22:07;28.70;77.80
38788;DHT22;24536;45.488;12.238;2023-06-19T09:24:38;28.70;77.50
38788;DHT22;24536;45.488;12.238;2023-06-19T09:27:15;28.80;77.20
38788;DHT22;24536;45.488;12.238;2023-06-19T09:29:45;28.90;76.90
38788;DHT22;24536;45.488;12.238;2023-06-19T09:32:29;29.00;76.80
38788;DHT22;24536;45.488;12.238;2023-06-19T09:34:56;29.00;76.20
38788;DHT22;24536;45.488;12.238;2023-06-19T09:37:30;29.10;75.80
38788;DHT22;24536;45.488;12.238;2023-06-19T09:40:05;29.10;75.40
38788;DHT22;24536;45.488;12.238;2023-06-19T09:42:42;29.20;75.10
38788;DHT22;24536;45.488;12.238;2023-06-19T09:45:11;29.30;74.60
38788;DHT22;24536;45.488;12.238;2023-06-19T09:47:38;29.30;73.90
38788;DHT22;24536;45.488;12.238;2023-06-19T09:50:05;29.30;73.40
38788;DHT22;24536;45.488;12.238;2023-06-19T09:52:31;29.40;72.70
38788;DHT22;24536;45.488;12.238;2023-06-19T09:54:57;29.40;72.70
38788;DHT22;24536;45.488;12.238;2023-06-19T09:57:23;29.60;72.90
38788;DHT22;24536;45.488;12.238;2023-06-19T09:59:55;29.70;72.80
38788;DHT22;24536;45.488;12.238;2023-06-19T10:02:26;29.80;72.30
38788;DHT22;24536;45.488;12.238;2023-06-19T10:04:54;29.80;71.40
38788;DHT22;24536;45.488;12.238;2023-06-19T10:07:33;29.90;71.40
38788;DHT22;24536;45.488;12.238;2023-06-19T10:10:05;29.90;71.00
38788;DHT22;24536;45.488;12.238;2023-06-19T10:12:42;30.00;71.10
38788;DHT22;24536;45.488;12.238;2023-06-19T10:15:19;30.10;70.40
38788;DHT22;24536;45.488;12.238;2023-06-19T10:17:51;30.10;70.30
38788;DHT22;24536;45.488;12.238;2023-06-19T10:25:43;30.30;69.30
38788;DHT22;24536;45.488;12.238;2023-06-19T10:28:20;30.40;69.30
38788;DHT22;24536;45.488;12.238;2023-06-19T10:31:03;30.50;69.20
38788;DHT22;24536;45.488;12.238;2023-06-19T10:33:31;30.60;68.70
38788;DHT22;24536;45.488;12.238;2023-06-19T10:36:15;30.70;68.20
38788;DHT22;24536;45.488;12.238;2023-06-19T10:38:42;30.80;67.80
38788;DHT22;24536;45.488;12.238;2023-06-19T10:41:20;30.90;68.00
38788;DHT22;24536;45.488;12.238;2023-06-19T10:43:59;31.00;67.90
38788;DHT22;24536;45.488;12.238;2023-06-19T10:46:32;31.20;67.50
38788;DHT22;24536;45.488;12.238;2023-06-19T10:48:59;31.20;67.90
38788;DHT22;24536;45.488;12.238;2023-06-19T10:51:36;31.30;68.30
38788;DHT22;24536;45.488;12.238;2023-06-19T10:54:02;31.40;67.60
38788;DHT22;24536;45.488;12.238;2023-06-19T10:56:28;31.50;67.20
38788;DHT22;24536;45.488;12.238;2023-06-19T10:59:04;31.60;67.00
38788;DHT22;24536;45.488;12.238;2023-06-19T11:01:47;31.80;66.90
38788;DHT22;24536;45.488;12.238;2023-06-19T11:04:15;31.90;66.70
38788;DHT22;24536;45.488;12.238;2023-06-19T11:06:42;32.00;66.30
38788;DHT22;24536;45.488;12.238;2023-06-19T11:09:10;32.20;66.10
38788;DHT22;24536;45.488;12.238;2023-06-19T11:11:47;32.30;65.40
38788;DHT22;24536;45.488;12.238;2023-06-19T11:14:15;32.40;65.40
38788;DHT22;24536;45.488;12.238;2023-06-19T11:16:42;32.50;65.60
38788;DHT22;24536;45.488;12.238;2023-06-19T11:19:13;32.70;65.80
38788;DHT22;24536;45.488;12.238;2023-06-19T11:21:39;32.90;65.70
38788;DHT22;24536;45.488;12.238;2023-06-19T11:24:09;33.10;65.10
38788;DHT22;24536;45.488;12.238;2023-06-19T11:26:43;33.30;64.80
38788;DHT22;24536;45.488;12.238;2023-06-19T11:29:18;33.40;64.10
38788;DHT22;24536;45.488;12.238;2023-06-19T11:31:45;33.70;64.50
38788;DHT22;24536;45.488;12.238;2023-06-19T11:34:12;34.00;64.00
38788;DHT22;24536;45.488;12.238;2023-06-19T11:36:39;34.40;63.00
38788;DHT22;24536;45.488;12.238;2023-06-19T11:39:08;34.70;61.60
38788;DHT22;24536;45.488;12.238;2023-06-19T11:41:34;35.10;60.70
38788;DHT22;24536;45.488;12.238;2023-06-19T11:44:04;35.50;60.50
38788;DHT22;24536;45.488;12.238;2023-06-19T11:46:32;35.90;60.40
38788;DHT22;24536;45.488;12.238;2023-06-19T11:49:12;36.20;59.30
38788;DHT22;24536;45.488;12.238;2023-06-19T11:51:37;36.50;58.20
38788;DHT22;24536;45.488;12.238;2023-06-19T11:54:08;36.70;58.10
38788;DHT22;24536;45.488;12.238;2023-06-19T11:56:38;36.80;57.30
38788;DHT22;24536;45.488;12.238;2023-06-19T11:59:05;36.50;56.10
38788;DHT22;24536;45.488;12.238;2023-06-19T12:01:32;36.20;56.30
38788;DHT22;24536;45.488;12.238;2023-06-19T12:03:59;35.90;57.50
38788;DHT22;24536;45.488;12.238;2023-06-19T12:06:24;35.80;58.00
38788;DHT22;24536;45.488;12.238;2023-06-19T12:08:50;35.80;58.20
38788;DHT22;24536;45.488;12.238;2023-06-19T12:11:16;35.90;58.60
38788;DHT22;24536;45.488;12.238;2023-06-19T12:13:42;36.10;58.10
38788;DHT22;24536;45.488;12.238;2023-06-19T12:16:11;36.30;57.50
38788;DHT22;24536;45.488;12.238;2023-06-19T12:18:37;36.50;57.80
38788;DHT22;24536;45.488;12.238;2023-06-19T12:21:03;36.80;57.40
38788;DHT22;24536;45.488;12.238;2023-06-19T12:23:29;37.00;56.90
38788;DHT22;24536;45.488;12.238;2023-06-19T12:25:55;37.20;56.40
38788;DHT22;24536;45.488;12.238;2023-06-19T12:28:21;37.40;56.40
38788;DHT22;24536;45.488;12.238;2023-06-19T12:30:48;37.50;55.70
38788;DHT22;24536;45.488;12.238;2023-06-19T12:33:19;37.70;54.90
38788;DHT22;24536;45.488;12.238;2023-06-19T12:35:50;37.80;54.30
38788;DHT22;24536;45.488;12.238;2023-06-19T12:38:16;37.90;54.90
38788;DHT22;24536;45.488;12.238;2023-06-19T12:40:43;38.00;54.60
38788;DHT22;24536;45.488;12.238;2023-06-19T12:43:09;38.20;53.20
38788;DHT22;24536;45.488;12.238;2023-06-19T12:45:34;38.20;52.60
38788;DHT22;24536;45.488;12.238;2023-06-19T12:48:00;38.30;52.20
38788;DHT22;24536;45.488;12.238;2023-06-19T12:50:26;38.40;52.10
38788;DHT22;24536;45.488;12.238;2023-06-19T12:52:52;38.50;52.30
38788;DHT22;24536;45.488;12.238;2023-06-19T12:55:18;38.50;51.50
38788;DHT22;24536;45.488;12.238;2023-06-19T12:57:43;38.50;51.90
38788;DHT22;24536;45.488;12.238;2023-06-19T13:00:11;38.50;52.20
38788;DHT22;24536;45.488;12.238;2023-06-19T13:02:39;38.50;52.80
38788;DHT22;24536;45.488;12.238;2023-06-19T13:05:06;38.50;52.40
38788;DHT22;24536;45.488;12.238;2023-06-19T13:07:32;38.50;52.80
38788;DHT22;24536;45.488;12.238;2023-06-19T13:09:58;38.50;52.80
38788;DHT22;24536;45.488;12.238;2023-06-19T13:12:24;38.50;52.80
38788;DHT22;24536;45.488;12.238;2023-06-19T13:14:50;38.20;52.60
38788;DHT22;24536;45.488;12.238;2023-06-19T13:17:15;38.00;52.70
38788;DHT22;24536;45.488;12.238;2023-06-19T13:19:41;37.80;53.10
38788;DHT22;24536;45.488;12.238;2023-06-19T13:22:07;37.70;52.90
38788;DHT22;24536;45.488;12.238;2023-06-19T13:24:33;37.60;53.20
38788;DHT22;24536;45.488;12.238;2023-06-19T13:26:59;37.60;54.50
38788;DHT22;24536;45.488;12.238;2023-06-19T13:29:24;37.60;54.50
38788;DHT22;24536;45.488;12.238;2023-06-19T13:31:50;37.70;54.60
38788;DHT22;24536;45.488;12.238;2023-06-19T13:34:16;37.80;54.40
38788;DHT22;24536;45.488;12.238;2023-06-19T13:36:43;37.80;54.10
38788;DHT22;24536;45.488;12.238;2023-06-19T13:39:10;37.80;54.10
38788;DHT22;24536;45.488;12.238;2023-06-19T13:41:36;37.80;54.30
38788;DHT22;24536;45.488;12.238;2023-06-19T13:44:02;37.80;54.30
38788;DHT22;24536;45.488;12.238;2023-06-19T13:46:29;37.80;54.70
38788;DHT22;24536;45.488;12.238;2023-06-19T13:48:57;37.90;54.10
38788;DHT22;24536;45.488;12.238;2023-06-19T13:51:23;37.90;54.20
38788;DHT22;24536;45.488;12.238;2023-06-19T13:53:50;37.90;54.20
38788;DHT22;24536;45.488;12.238;2023-06-19T13:56:16;37.80;54.10
38788;DHT22;24536;45.488;12.238;2023-06-19T13:58:42;37.70;54.40
38788;DHT22;24536;45.488;12.238;2023-06-19T14:01:08;37.70;53.90
38788;DHT22;24536;45.488;12.238;2023-06-19T14:03:37;37.50;54.60
38788;DHT22;24536;45.488;12.238;2023-06-19T14:06:03;37.40;54.90
38788;DHT22;24536;45.488;12.238;2023-06-19T14:08:29;37.30;55.30
38788;DHT22;24536;45.488;12.238;2023-06-19T14:10:55;37.20;54.80
38788;DHT22;24536;45.488;12.238;2023-06-19T14:13:27;36.90;55.00
38788;DHT22;24536;45.488;12.238;2023-06-19T14:15:57;36.90;55.10
38788;DHT22;24536;45.488;12.238;2023-06-19T14:18:23;36.70;55.40
38788;DHT22;24536;45.488;12.238;2023-06-19T14:20:49;36.60;55.30
38788;DHT22;24536;45.488;12.238;2023-06-19T14:23:14;36.40;55.10
38788;DHT22;24536;45.488;12.238;2023-06-19T14:25:41;36.30;55.00
38788;DHT22;24536;45.488;12.238;2023-06-19T14:28:07;36.20;55.50
38788;DHT22;24536;45.488;12.238;2023-06-19T14:30:32;36.10;55.90
38788;DHT22;24536;45.488;12.238;2023-06-19T14:32:58;35.90;56.70
38788;DHT22;24536;45.488;12.238;2023-06-19T14:35:24;35.80;57.10
38788;DHT22;24536;45.488;12.238;2023-06-19T14:37:53;35.60;57.50
38788;DHT22;24536;45.488;12.238;2023-06-19T14:40:21;35.50;57.50
38788;DHT22;24536;45.488;12.238;2023-06-19T14:42:47;35.30;57.20
38788;DHT22;24536;45.488;12.238;2023-06-19T14:45:13;35.20;57.60
38788;DHT22;24536;45.488;12.238;2023-06-19T14:47:39;35.00;57.80
38788;DHT22;24536;45.488;12.238;2023-06-19T14:50:05;34.90;58.40
38788;DHT22;24536;45.488;12.238;2023-06-19T14:52:31;34.70;58.00
38788;DHT22;24536;45.488;12.238;2023-06-19T14:54:56;34.60;58.10
38788;DHT22;24536;45.488;12.238;2023-06-19T14:57:24;34.60;58.10
38788;DHT22;24536;45.488;12.238;2023-06-19T14:59:50;34.50;58.30
38788;DHT22;24536;45.488;12.238;2023-06-19T15:02:15;34.40;58.50
38788;DHT22;24536;45.488;12.238;2023-06-19T15:04:41;34.20;58.10
38788;DHT22;24536;45.488;12.238;2023-06-19T15:07:07;34.10;58.60
38788;DHT22;24536;45.488;12.238;2023-06-19T15:09:32;34.00;58.60
38788;DHT22;24536;45.488;12.238;2023-06-19T15:11:58;34.00;59.10
38788;DHT22;24536;45.488;12.238;2023-06-19T15:14:24;33.90;59.10
38788;DHT22;24536;45.488;12.238;2023-06-19T15:16:50;33.90;59.40
38788;DHT22;24536;45.488;12.238;2023-06-19T15:19:16;33.90;59.60
38788;DHT22;24536;45.488;12.238;2023-06-19T15:21:41;33.80;59.60
38788;DHT22;24536;45.488;12.238;2023-06-19T15:24:08;33.70;59.70
38788;DHT22;24536;45.488;12.238;2023-06-19T15:26:34;33.60;59.60